sensor_id;sensor_type;location;lat;lon;timestamp;temperature;humidity
51793;DHT22;37850;53.178;6.376;2023-03-23T00:01:08;10.20;99.90
51793;DHT22;37850;53.178;6.376;2023-03-23T00:03:45;10.10;99.90
51793;DHT22;37850;53.178;6.376;2023-03-23T00:06:11;10.10;99.90
51793;DHT22;37850;53.178;6.376;2023-03-23T00:08:43;10.10;99.90
51793;DHT22;37850;53.178;6.376;2023-03-23T00:11:17;10.10;99.90
51793;DHT22;37850;53.178;6.376;2023-03-23T00:13:49;10.10;99.90
51793;DHT22;37850;53.178;6.376;2023-03-23T00:16:23;10.10;99.90
51793;DHT22;37850;53.178;6.376;2023-03-23T00:18:55;10.10;99.90
51793;DHT22;37850;53.178;6.376;2023-03-23T00:21:24;10.10;99.90
51793;DHT22;37850;53.178;6.376;2023-03-23T00:23:53;10.10;99.90
51793;DHT22;37850;53.178;6.376;2023-03-23T00:26:19;10.10;99.90
51793;DHT22;37850;53.178;6.376;2023-03-23T00:28:45;10.20;99.90
51793;DHT22;37850;53.178;6.376;2023-03-23T00:31:12;10.10;99.90
51793;DHT22;37850;53.178;6.376;2023-03-23T00:33:39;10.20;99.90
51793;DHT22;37850;53.178;6.376;2023-03-23T00:36:11;10.20;99.90
51793;DHT22;37850;53.178;6.376;2023-03-23T00:38:38;10.20;99.90
51793;DHT22;37850;53.178;6.376;2023-03-23T00:41:05;10.20;99.90
51793;DHT22;37850;53.178;6.376;2023-03-23T00:43:32;10.20;99.90
51793;DHT22;37850;53.178;6.376;2023-03-23T00:46:02;10.30;99.90
51793;DHT22;37850;53.178;6.376;2023-03-23T00:48:29;10.60;99.90
51793;DHT22;37850;53.178;6.376;2023-03-23T00:50:55;10.30;99.90
51793;DHT22;37850;53.178;6.376;2023-03-23T00:53:22;10.30;99.90
51793;DHT22;37850;53.178;6.376;2023-03-23T00:55:48;10.40;99.90
51793;DHT22;37850;53.178;6.376;2023-03-23T00:58:15;10.40;99.90
51793;DHT22;37850;53.178;6.376;2023-03-23T01:00:42;10.40;99.90
51793;DHT22;37850;53.178;6.376;2023-03-23T01:03:09;10.40;99.90
51793;DHT22;37850;53.178;6.376;2023-03-23T01:05:38;10.40;99.90
51793;DHT22;37850;53.178;6.376;2023-03-23T01:08:05;10.30;99.90
51793;DHT22;37850;53.178;6.376;2023-03-23T01:10:31;10.30;99.90
51793;DHT22;37850;53.178;6.376;2023-03-23T01:12:59;10.30;99.90
51793;DHT22;37850;53.178;6.376;2023-03-23T01:15:27;10.20;99.90
51793;DHT22;37850;53.178;6.376;2023-03-23T01:17:53;10.20;99.90
51793;DHT22;37850;53.178;6.376;2023-03-23T01:20:19;10.20;99.90
51793;DHT22;37850;53.178;6.376;2023-03-23T01:22:45;10.20;99.90
51793;DHT22;37850;53.178;6.376;2023-03-23T01:25:12;10.10;99.90
51793;DHT22;37850;53.178;6.376;2023-03-23T01:27:39;10.10;99.90
51793;DHT22;37850;53.178;6.376;2023-03-23T01:30:06;10.10;99.90
51793;DHT22;37850;53.178;6.376;2023-03-23T01:32:33;10.10;99.90
51793;DHT22;37850;53.178;6.376;2023-03-23T01:34:59;10.10;99.90
51793;DHT22;37850;53.178;6.376;2023-03-23T01:37:24;10.10;99.90
51793;DHT22;37850;53.178;6.376;2023-03-23T01:39:53;10.10;99.90
51793;DHT22;37850;53.178;6.376;2023-03-23T01:42:22;10.10;99.90
51793;DHT22;37850;53.178;6.376;2023-03-23T01:47:14;10.20;99.90
51793;DHT22;37850;53.178;6.376;2023-03-23T01:49:43;10.30;99.90
51793;DHT22;37850;53.178;6.376;2023-03-23T01:52:22;10.30;99.90
51793;DHT22;37850;53.178;6.376;2023-03-23T01:54:50;10.30;99.90
51793;DHT22;37850;53.178;6.376;2023-03-23T01:57:19;10.40;99.90
51793;DHT22;37850;53.178;6.376;2023-03-23T01:59:53;10.40;99.90
51793;DHT22;37850;53.178;6.376;2023-03-23T02:02:22;10.40;99.90
51793;DHT22;37850;53.178;6.376;2023-03-23T02:04:48;10.50;99.90
51793;DHT22;37850;53.178;6.376;2023-03-23T02:07:17;10.50;99.90
51793;DHT22;37850;53.178;6.376;2023-03-23T02:09:43;10.50;99.90
51793;DHT22;37850;53.178;6.376;2023-03-23T02:12:09;10.50;99.90
51793;DHT22;37850;53.178;6.376;2023-03-23T02:14:35;10.50;99.90
51793;DHT22;37850;53.178;6.376;2023-03-23T02:17:45;10.60;99.90
51793;DHT22;37850;53.178;6.376;2023-03-23T02:28:57;10.60;99.90
51793;DHT22;37850;53.178;6.376;2023-03-23T02:34:17;10.60;99.90
51793;DHT22;37850;53.178;6.376;2023-03-23T02:37:02;10.90;99.90
51793;DHT22;37850;53.178;6.376;2023-03-23T02:39:47;10.70;99.90
51793;DHT22;37850;53.178;6.376;2023-03-23T02:42:19;10.60;99.90
51793;DHT22;37850;53.178;6.376;2023-03-23T02:44:46;10.70;99.90
51793;DHT22;37850;53.178;6.376;2023-03-23T02:47:25;10.70;99.90
51793;DHT22;37850;53.178;6.376;2023-03-23T02:49:54;10.70;99.90
51793;DHT22;37850;53.178;6.376;2023-03-23T02:52:27;10.60;99.90
51793;DHT22;37850;53.178;6.376;2023-03-23T02:54:56;10.70;99.90
51793;DHT22;37850;53.178;6.376;2023-03-23T02:57:25;10.70;99.90
51793;DHT22;37850;53.178;6.376;2023-03-23T02:59:53;10.70;99.90
51793;DHT22;37850;53.178;6.376;2023-03-23T03:16:30;10.70;99.90
51793;DHT22;37850;53.178;6.376;2023-03-23T03:21:29;10.70;99.90
51793;DHT22;37850;53.178;6.376;2023-03-23T03:23:58;10.60;99.90
51793;DHT22;37850;53.178;6.376;2023-03-23T03:26:27;10.70;99.90
51793;DHT22;37850;53.178;6.376;2023-03-23T03:28:54;10.60;99.90
51793;DHT22;37850;53.178;6.376;2023-03-23T03:31:23;10.60;99.90
51793;DHT22;37850;53.178;6.376;2023-03-23T03:33:50;10.70;99.90
51793;DHT22;37850;53.178;6.376;2023-03-23T03:36:23;10.70;99.90
51793;DHT22;37850;53.178;6.376;2023-03-23T03:38:52;10.70;99.90
51793;DHT22;37850;53.178;6.376;2023-03-23T03:41:19;11.00;99.90
51793;DHT22;37850;53.178;6.376;2023-03-23T03:43:45;10.70;99.90
51793;DHT22;37850;53.178;6.376;2023-03-23T03:46:11;10.70;99.90
51793;DHT22;37850;53.178;6.376;2023-03-23T03:48:37;10.70;99.90
51793;DHT22;37850;53.178;6.376;2023-03-23T03:51:03;10.70;99.90
51793;DHT22;37850;53.178;6.376;2023-03-23T03:53:29;10.70;99.90
51793;DHT22;37850;53.178;6.376;2023-03-23T03:55:56;10.70;99.90
51793;DHT22;37850;53.178;6.376;2023-03-23T03:58:28;10.60;99.90
51793;DHT22;37850;53.178;6.376;2023-03-23T04:01:00;10.60;99.90
51793;DHT22;37850;53.178;6.376;2023-03-23T04:03:27;10.60;99.90
51793;DHT22;37850;53.178;6.376;2023-03-23T04:05:54;10.60;99.90
51793;DHT22;37850;53.178;6.376;2023-03-23T04:08:23;10.60;99.90
51793;DHT22;37850;53.178;6.376;2023-03-23T04:10:50;10.60;99.90
51793;DHT22;37850;53.178;6.376;2023-03-23T04:13:16;10.60;99.90
51793;DHT22;37850;53.178;6.376;2023-03-23T04:15:43;10.50;99.90
51793;DHT22;37850;53.178;6.376;2023-03-23T04:18:09;10.50;99.90
51793;DHT22;37850;53.178;6.376;2023-03-23T04:20:35;10.40;99.90
51793;DHT22;37850;53.178;6.376;2023-03-23T04:23:03;10.40;99.90
51793;DHT22;37850;53.178;6.376;2023-03-23T04:25:29;10.40;99.90
51793;DHT22;37850;53.178;6.376;2023-03-23T04:27:58;10.30;99.90
51793;DHT22;37850;53.178;6.376;2023-03-23T04:30:27;10.30;99.90
51793;DHT22;37850;53.178;6.376;2023-03-23T04:32:54;10.30;99.90
51793;DHT22;37850;53.178;6.376;2023-03-23T04:35:22;10.30;99.90
51793;DHT22;37850;53.178;6.376;2023-03-23T04:37:52;10.20;99.90
51793;DHT22;37850;53.178;6.376;2023-03-23T04:40:19;10.20;99.90
51793;DHT22;37850;53.178;6.376;2023-03-23T04:42:46;10.20;99.90
51793;DHT22;37850;53.178;6.376;2023-03-23T04:45:18;10.20;99.90
51793;DHT22;37850;53.178;6.376;2023-03-23T04:47:50;10.20;99.90
51793;DHT22;37850;53.178;6.376;2023-03-23T04:50:24;10.30;99.90
51793;DHT22;37850;53.178;6.376;2023-03-23T04:52:52;10.10;99.90
51793;DHT22;37850;53.178;6.376;2023-03-23T04:55:20;10.00;99.90
51793;DHT22;37850;53.178;6.376;2023-03-23T04:57:46;10.00;99.90
51793;DHT22;37850;53.178;6.376;2023-03-23T05:00:13;10.00;99.90
51793;DHT22;37850;53.178;6.376;2023-03-23T05:02:42;10.00;99.90
51793;DHT22;37850;53.178;6.376;2023-03-23T05:05:10;10.00;99.90
51793;DHT22;37850;53.178;6.376;2023-03-23T05:07:41;10.00;99.90
51793;DHT22;37850;53.178;6.376;2023-03-23T05:10:08;9.90;99.90
51793;DHT22;37850;53.178;6.376;2023-03-23T05:12:35;10.00;99.90
51793;DHT22;37850;53.178;6.376;2023-03-23T05:15:01;10.00;99.90
51793;DHT22;37850;53.178;6.376;2023-03-23T05:17:27;10.00;99.90
51793;DHT22;37850;53.178;6.376;2023-03-23T05:19:53;10.00;99.90
51793;DHT22;37850;53.178;6.376;2023-03-23T05:22:19;10.00;99.90
51793;DHT22;37850;53.178;6.376;2023-03-23T05:24:47;10.00;99.90
51793;DHT22;37850;53.178;6.376;2023-03-23T05:27:13;10.00;99.90
51793;DHT22;37850;53.178;6.376;2023-03-23T05:29:40;10.00;99.90
51793;DHT22;37850;53.178;6.376;2023-03-23T05:32:07;10.00;99.90
51793;DHT22;37850;53.178;6.376;2023-03-23T05:34:33;10.00;99.90
51793;DHT22;37850;53.178;6.376;2023-03-23T05:37:03;10.00;99.90
51793;DHT22;37850;53.178;6.376;2023-03-23T05:39:29;10.30;99.90
51793;DHT22;37850;53.178;6.376;2023-03-23T05:41:57;10.00;99.90
51793;DHT22;37850;53.178;6.376;2023-03-23T05:44:22;10.00;99.90
51793;DHT22;37850;53.178;6.376;2023-03-23T05:46:49;10.00;99.90
51793;DHT22;37850;53.178;6.376;2023-03-23T05:49:15;10.00;99.90
51793;DHT22;37850;53.178;6.376;2023-03-23T05:51:45;10.00;99.90
51793;DHT22;37850;53.178;6.376;2023-03-23T05:54:15;9.90;99.90
51793;DHT22;37850;53.178;6.376;2023-03-23T05:56:41;9.90;99.90
51793;DHT22;37850;53.178;6.376;2023-03-23T05:59:08;10.00;99.90
51793;DHT22;37850;53.178;6.376;2023-03-23T06:01:36;10.00;99.90
51793;DHT22;37850;53.178;6.376;2023-03-23T06:04:03;9.90;99.90
51793;DHT22;37850;53.178;6.376;2023-03-23T06:06:29;10.00;99.90
51793;DHT22;37850;53.178;6.376;2023-03-23T06:08:57;10.00;99.90
51793;DHT22;37850;53.178;6.376;2023-03-23T06:11:24;10.00;99.90
51793;DHT22;37850;53.178;6.376;2023-03-23T06:13:52;10.00;99.90
51793;DHT22;37850;53.178;6.376;2023-03-23T06:16:18;10.00;99.90
51793;DHT22;37850;53.178;6.376;2023-03-23T06:18:44;10.00;99.90
51793;DHT22;37850;53.178;6.376;2023-03-23T06:21:10;10.00;99.90
51793;DHT22;37850;53.178;6.376;2023-03-23T06:23:37;10.00;99.90
51793;DHT22;37850;53.178;6.376;2023-03-23T06:26:07;10.10;99.90
51793;DHT22;37850;53.178;6.376;2023-03-23T06:28:33;10.00;99.90
51793;DHT22;37850;53.178;6.376;2023-03-23T06:31:04;10.00;99.90
51793;DHT22;37850;53.178;6.376;2023-03-23T06:33:33;10.00;99.90
51793;DHT22;37850;53.178;6.376;2023-03-23T06:35:59;10.00;99.90
51793;DHT22;37850;53.178;6.376;2023-03-23T06:38:25;10.00;99.90
51793;DHT22;37850;53.178;6.376;2023-03-23T06:40:55;9.90;99.90
51793;DHT22;37850;53.178;6.376;2023-03-23T06:43:21;9.90;99.90
51793;DHT22;37850;53.178;6.376;2023-03-23T06:45:47;9.80;99.90
51793;DHT22;37850;53.178;6.376;2023-03-23T06:48:13;9.70;99.90
51793;DHT22;37850;53.178;6.376;2023-03-23T06:50:43;9.70;99.90
51793;DHT22;37850;53.178;6.376;2023-03-23T06:53:09;9.60;99.90
51793;DHT22;37850;53.178;6.376;2023-03-23T06:55:35;9.50;99.90
51793;DHT22;37850;53.178;6.376;2023-03-23T06:58:02;9.50;99.90
51793;DHT22;37850;53.178;6.376;2023-03-23T07:00:27;9.40;99.90
51793;DHT22;37850;53.178;6.376;2023-03-23T07:02:54;9.40;99.90
51793;DHT22;37850;53.178;6.376;2023-03-23T07:05:20;9.40;99.90
51793;DHT22;37850;53.178;6.376;2023-03-23T07:07:47;9.40;99.90
51793;DHT22;37850;53.178;6.376;2023-03-23T07:10:13;9.40;99.90
51793;DHT22;37850;53.178;6.376;2023-03-23T07:12:38;9.50;99.90
51793;DHT22;37850;53.178;6.376;2023-03-23T07:15:06;9.50;99.90
51793;DHT22;37850;53.178;6.376;2023-03-23T07:17:41;9.50;99.90
51793;DHT22;37850;53.178;6.376;2023-03-23T07:20:07;9.50;99.90
51793;DHT22;37850;53.178;6.376;2023-03-23T07:22:33;9.60;99.90
51793;DHT22;37850;53.178;6.376;2023-03-23T07:24:59;9.60;99.90
51793;DHT22;37850;53.178;6.376;2023-03-23T07:27:25;9.60;99.90
51793;DHT22;37850;53.178;6.376;2023-03-23T07:29:51;9.70;99.90
51793;DHT22;37850;53.178;6.376;2023-03-23T07:32:17;9.70;99.90
51793;DHT22;37850;53.178;6.376;2023-03-23T07:34:43;9.80;99.90
51793;DHT22;37850;53.178;6.376;2023-03-23T07:37:10;9.90;99.90
51793;DHT22;37850;53.178;6.376;2023-03-23T07:39:36;10.00;99.90
51793;DHT22;37850;53.178;6.376;2023-03-23T07:42:02;10.10;99.90
51793;DHT22;37850;53.178;6.376;2023-03-23T07:44:28;10.30;99.90
51793;DHT22;37850;53.178;6.376;2023-03-23T07:46:54;10.40;99.90
51793;DHT22;37850;53.178;6.376;2023-03-23T07:49:20;10.50;99.90
51793;DHT22;37850;53.178;6.376;2023-03-23T07:51:46;10.60;99.90
51793;DHT22;37850;53.178;6.376;2023-03-23T07:54:12;10.70;99.90
51793;DHT22;37850;53.178;6.376;2023-03-23T07:56:40;10.70;99.90
51793;DHT22;37850;53.178;6.376;2023-03-23T07:59:07;10.70;99.90
51793;DHT22;37850;53.178;6.376;2023-03-23T08:01:33;10.70;99.90
51793;DHT22;37850;53.178;6.376;2023-03-23T08:04:00;10.70;99.90
51793;DHT22;37850;53.178;6.376;2023-03-23T08:06:27;10.80;99.90
51793;DHT22;37850;53.178;6.376;2023-03-23T08:08:53;10.80;99.90
51793;DHT22;37850;53.178;6.376;2023-03-23T08:11:19;10.70;99.90
51793;DHT22;37850;53.178;6.376;2023-03-23T08:13:46;10.70;99.90
51793;DHT22;37850;53.178;6.376;2023-03-23T08:16:12;10.70;99.90
51793;DHT22;37850;53.178;6.376;2023-03-23T08:18:38;10.70;99.90
51793;DHT22;37850;53.178;6.376;2023-03-23T08:21:05;10.80;99.90
51793;DHT22;37850;53.178;6.376;2023-03-23T08:23:32;10.80;99.90
51793;DHT22;37850;53.178;6.376;2023-03-23T08:25:59;10.80;99.90
51793;DHT22;37850;53.178;6.376;2023-03-23T08:28:25;10.90;99.90
51793;DHT22;37850;53.178;6.376;2023-03-23T08:30:50;10.90;99.90
51793;DHT22;37850;53.178;6.376;2023-03-23T08:33:17;10.80;99.90
51793;DHT22;37850;53.178;6.376;2023-03-23T08:35:43;10.80;99.90
51793;DHT22;37850;53.178;6.376;2023-03-23T08:38:10;10.80;99.90
51793;DHT22;37850;53.178;6.376;2023-03-23T08:40:37;10.90;99.90
51793;DHT22;37850;53.178;6.376;2023-03-23T08:43:04;10.90;99.90
51793;DHT22;37850;53.178;6.376;2023-03-23T08:45:30;11.00;99.90
51793;DHT22;37850;53.178;6.376;2023-03-23T08:47:55;11.10;99.90
51793;DHT22;37850;53.178;6.376;2023-03-23T08:50:27;11.10;99.90
51793;DHT22;37850;53.178;6.376;2023-03-23T08:52:53;11.20;99.90
51793;DHT22;37850;53.178;6.376;2023-03-23T08:55:20;11.30;99.90
51793;DHT22;37850;53.178;6.376;2023-03-23T08:57:46;11.30;99.90
51793;DHT22;37850;53.178;6.376;2023-03-23T09:00:15;11.40;99.90
51793;DHT22;37850;53.178;6.376;2023-03-23T09:02:49;11.40;99.90
51793;DHT22;37850;53.178;6.376;2023-03-23T09:05:16;11.50;99.90
51793;DHT22;37850;53.178;6.376;2023-03-23T09:07:45;11.60;99.90
51793;DHT22;37850;53.178;6.376;2023-03-23T09:10:11;11.60;99.90
51793;DHT22;37850;53.178;6.376;2023-03-23T09:12:39;11.70;99.90
51793;DHT22;37850;53.178;6.376;2023-03-23T09:15:06;11.70;99.90
51793;DHT22;37850;53.178;6.376;2023-03-23T09:17:36;11.80;99.90
51793;DHT22;37850;53.178;6.376;2023-03-23T09:20:03;11.80;99.90
51793;DHT22;37850;53.178;6.376;2023-03-23T09:22:33;11.70;99.90
51793;DHT22;37850;53.178;6.376;2023-03-23T09:24:58;11.70;99.90
51793;DHT22;37850;53.178;6.376;2023-03-23T09:27:24;11.70;99.90
51793;DHT22;37850;53.178;6.376;2023-03-23T09:29:51;11.70;99.90
51793;DHT22;37850;53.178;6.376;2023-03-23T09:32:16;11.70;99.90
51793;DHT22;37850;53.178;6.376;2023-03-23T09:34:43;11.60;99.90
51793;DHT22;37850;53.178;6.376;2023-03-23T09:37:08;11.50;99.90
51793;DHT22;37850;53.178;6.376;2023-03-23T09:39:34;11.50;99.90
51793;DHT22;37850;53.178;6.376;2023-03-23T09:47:37;11.80;99.90
51793;DHT22;37850;53.178;6.376;2023-03-23T09:50:10;12.00;99.90
51793;DHT22;37850;53.178;6.376;2023-03-23T09:52:50;12.20;99.90
51793;DHT22;37850;53.178;6.376;2023-03-23T09:55:18;12.30;99.90
51793;DHT22;37850;53.178;6.376;2023-03-23T10:00:54;12.60;99.90
51793;DHT22;37850;53.178;6.376;2023-03-23T10:03:34;12.60;99.90
51793;DHT22;37850;53.178;6.376;2023-03-23T10:06:00;12.60;99.90
51793;DHT22;37850;53.178;6.376;2023-03-23T10:08:29;12.60;99.90
51793;DHT22;37850;53.178;6.376;2023-03-23T10:14:02;12.70;99.90
51793;DHT22;37850;53.178;6.376;2023-03-23T10:16:38;12.70;99.90
51793;DHT22;37850;53.178;6.376;2023-03-23T10:19:36;12.70;99.90
51793;DHT22;37850;53.178;6.376;2023-03-23T10:22:12;12.70;99.90
51793;DHT22;37850;53.178;6.376;2023-03-23T10:24:47;12.70;99.90
51793;DHT22;37850;53.178;6.376;2023-03-23T10:27:33;12.80;99.90
51793;DHT22;37850;53.178;6.376;2023-03-23T10:30:13;12.80;99.90
51793;DHT22;37850;53.178;6.376;2023-03-23T10:35:18;12.70;99.90
51793;DHT22;37850;53.178;6.376;2023-03-23T10:37:49;12.60;99.90
51793;DHT22;37850;53.178;6.376;2023-03-23T10:40:21;12.50;99.90
51793;DHT22;37850;53.178;6.376;2023-03-23T10:42:49;12.40;99.90
51793;DHT22;37850;53.178;6.376;2023-03-23T10:45:19;12.30;99.90
51793;DHT22;37850;53.178;6.376;2023-03-23T10:47:58;12.30;99.90
51793;DHT22;37850;53.178;6.376;2023-03-23T10:50:30;12.20;99.90
51793;DHT22;37850;53.178;6.376;2023-03-23T10:52:59;12.20;99.90
51793;DHT22;37850;53.178;6.376;2023-03-23T10:55:40;12.10;99.90
51793;DHT22;37850;53.178;6.376;2023-03-23T10:58:11;12.10;99.90
51793;DHT22;37850;53.178;6.376;2023-03-23T11:00:44;12.00;99.90
51793;DHT22;37850;53.178;6.376;2023-03-23T11:03:21;12.00;99.90
51793;DHT22;37850;53.178;6.376;2023-03-23T11:06:09;12.00;99.90
51793;DHT22;37850;53.178;6.376;2023-03-23T11:08:46;12.00;99.90
51793;DHT22;37850;53.178;6.376;2023-03-23T11:11:28;12.00;99.90
51793;DHT22;37850;53.178;6.376;2023-03-23T11:14:41;12.10;99.90
51793;DHT22;37850;53.178;6.376;2023-03-23T11:17:02;12.10;99.90
51793;DHT22;37850;53.178;6.376;2023-03-23T11:19:30;12.10;99.90
51793;DHT22;37850;53.178;6.376;2023-03-23T11:22:26;12.20;99.90
51793;DHT22;37850;53.178;6.376;2023-03-23T11:25:00;12.30;99.90
51793;DHT22;37850;53.178;6.376;2023-03-23T11:27:27;12.50;99.90
51793;DHT22;37850;53.178;6.376;2023-03-23T11:30:40;12.60;99.90
51793;DHT22;37850;53.178;6.376;2023-03-23T11:32:44;12.80;99.90
51793;DHT22;37850;53.178;6.376;2023-03-23T11:35:23;12.90;99.90
51793;DHT22;37850;53.178;6.376;2023-03-23T11:37:56;13.10;99.90
51793;DHT22;37850;53.178;6.376;2023-03-23T11:40:28;13.10;99.90
51793;DHT22;37850;53.178;6.376;2023-03-23T11:43:01;13.20;99.90
51793;DHT22;37850;53.178;6.376;2023-03-23T11:46:02;13.20;99.90
51793;DHT22;37850;53.178;6.376;2023-03-23T11:51:20;13.40;99.90
51793;DHT22;37850;53.178;6.376;2023-03-23T11:56:39;13.50;99.90
51793;DHT22;37850;53.178;6.376;2023-03-23T11:59:15;13.70;99.90
51793;DHT22;37850;53.178;6.376;2023-03-23T12:13:25;14.00;99.90
51793;DHT22;37850;53.178;6.376;2023-03-23T12:16:00;14.00;99.90
51793;DHT22;37850;53.178;6.376;2023-03-23T12:26:53;14.10;99.90
51793;DHT22;37850;53.178;6.376;2023-03-23T12:29:40;14.20;99.90
51793;DHT22;37850;53.178;6.376;2023-03-23T12:35:32;14.20;99.90
51793;DHT22;37850;53.178;6.376;2023-03-23T12:38:28;14.10;99.90
51793;DHT22;37850;53.178;6.376;2023-03-23T12:41:17;14.10;99.90
51793;DHT22;37850;53.178;6.376;2023-03-23T12:43:58;14.20;99.90
51793;DHT22;37850;53.178;6.376;2023-03-23T12:49:52;14.10;99.90
51793;DHT22;37850;53.178;6.376;2023-03-23T12:52:32;14.00;99.90
51793;DHT22;37850;53.178;6.376;2023-03-23T12:57:56;13.70;99.90
51793;DHT22;37850;53.178;6.376;2023-03-23T13:03:38;13.70;99.90
51793;DHT22;37850;53.178;6.376;2023-03-23T13:11:35;13.70;99.90
51793;DHT22;37850;53.178;6.376;2023-03-23T13:16:46;13.60;99.90
51793;DHT22;37850;53.178;6.376;2023-03-23T13:22:04;13.50;99.90
51793;DHT22;37850;53.178;6.376;2023-03-23T13:24:34;13.50;99.90
51793;DHT22;37850;53.178;6.376;2023-03-23T13:27:02;13.50;99.90
51793;DHT22;37850;53.178;6.376;2023-03-23T13:29:28;13.50;99.90
51793;DHT22;37850;53.178;6.376;2023-03-23T13:32:12;13.50;99.90
51793;DHT22;37850;53.178;6.376;2023-03-23T13:34:39;13.40;99.90
51793;DHT22;37850;53.178;6.376;2023-03-23T13:37:12;13.40;99.90
51793;DHT22;37850;53.178;6.376;2023-03-23T13:39:53;13.40;99.90
51793;DHT22;37850;53.178;6.376;2023-03-23T13:42:27;13.40;99.90
51793;DHT22;37850;53.178;6.376;2023-03-23T13:45:20;13.40;99.90
51793;DHT22;37850;53.178;6.376;2023-03-23T13:47:47;13.40;99.90
51793;DHT22;37850;53.178;6.376;2023-03-23T14:05:43;13.60;99.90
51793;DHT22;37850;53.178;6.376;2023-03-23T14:10:40;13.50;99.90
51793;DHT22;37850;53.178;6.376;2023-03-23T14:13:19;13.40;99.90
51793;DHT22;37850;53.178;6.376;2023-03-23T14:15:59;13.40;99.90
51793;DHT22;37850;53.178;6.376;2023-03-23T14:18:37;13.40;99.90
51793;DHT22;37850;53.178;6.376;2023-03-23T14:21:04;13.40;99.90
51793;DHT22;37850;53.178;6.376;2023-03-23T14:23:34;13.40;99.90
51793;DHT22;37850;53.178;6.376;2023-03-23T14:26:11;13.30;99.90
51793;DHT22;37850;53.178;6.376;2023-03-23T14:28:42;13.30;99.90
51793;DHT22;37850;53.178;6.376;2023-03-23T14:31:26;13.30;99.90
51793;DHT22;37850;53.178;6.376;2023-03-23T14:33:56;13.30;99.90
51793;DHT22;37850;53.178;6.376;2023-03-23T14:36:28;13.30;99.90
51793;DHT22;37850;53.178;6.376;2023-03-23T14:41:35;13.40;99.90
51793;DHT22;37850;53.178;6.376;2023-03-23T14:44:03;13.40;99.90
51793;DHT22;37850;53.178;6.376;2023-03-23T14:46:31;13.40;99.90
51793;DHT22;37850;53.178;6.376;2023-03-23T14:49:00;13.40;99.90
51793;DHT22;37850;53.178;6.376;2023-03-23T14:51:26;13.40;99.90
51793;DHT22;37850;53.178;6.376;2023-03-23T14:53:53;13.50;99.90
51793;DHT22;37850;53.178;6.376;2023-03-23T14:56:23;13.50;99.90
51793;DHT22;37850;53.178;6.376;2023-03-23T14:58:53;13.60;99.90
51793;DHT22;37850;53.178;6.376;2023-03-23T15:01:24;13.60;99.90
51793;DHT22;37850;53.178;6.376;2023-03-23T15:04:03;13.70;99.90
51793;DHT22;37850;53.178;6.376;2023-03-23T15:06:31;13.70;99.90
51793;DHT22;37850;53.178;6.376;2023-03-23T15:09:01;13.70;99.90
51793;DHT22;37850;53.178;6.376;2023-03-23T15:11:30;13.70;99.90
51793;DHT22;37850;53.178;6.376;2023-03-23T15:13:59;13.70;99.90
51793;DHT22;37850;53.178;6.376;2023-03-23T15:16:33;13.70;99.90
51793;DHT22;37850;53.178;6.376;2023-03-23T15:19:05;13.80;99.90
51793;DHT22;37850;53.178;6.376;2023-03-23T15:21:33;13.70;99.90
51793;DHT22;37850;53.178;6.376;2023-03-23T15:24:00;13.60;99.90
51793;DHT22;37850;53.178;6.376;2023-03-23T15:26:41;13.60;99.90
51793;DHT22;37850;53.178;6.376;2023-03-23T15:32:09;13.70;99.90
51793;DHT22;37850;53.178;6.376;2023-03-23T15:34:34;13.60;99.90
51793;DHT22;37850;53.178;6.376;2023-03-23T15:37:16;13.60;99.90
51793;DHT22;37850;53.178;6.376;2023-03-23T15:39:45;13.60;99.90
51793;DHT22;37850;53.178;6.376;2023-03-23T15:42:30;13.50;99.90
51793;DHT22;37850;53.178;6.376;2023-03-23T15:45:02;13.60;99.90
51793;DHT22;37850;53.178;6.376;2023-03-23T15:47:46;13.50;99.90
51793;DHT22;37850;53.178;6.376;2023-03-23T15:52:52;13.50;99.90
51793;DHT22;37850;53.178;6.376;2023-03-23T15:55:35;13.50;99.90
51793;DHT22;37850;53.178;6.376;2023-03-23T15:58:09;13.40;99.90
51793;DHT22;37850;53.178;6.376;2023-03-23T16:00:35;13.40;99.90
51793;DHT22;37850;53.178;6.376;2023-03-23T16:03:04;13.40;99.90
51793;DHT22;37850;53.178;6.376;2023-03-23T16:05:30;13.40;99.90
51793;DHT22;37850;53.178;6.376;2023-03-23T16:07:56;13.40;99.90
51793;DHT22;37850;53.178;6.376;2023-03-23T16:10:24;13.40;99.90
51793;DHT22;37850;53.178;6.376;2023-03-23T16:12:50;13.30;99.90
51793;DHT22;37850;53.178;6.376;2023-03-23T16:15:17;13.30;99.90
51793;DHT22;37850;53.178;6.376;2023-03-23T16:17:43;13.20;99.90
51793;DHT22;37850;53.178;6.376;2023-03-23T16:20:19;13.20;99.90
51793;DHT22;37850;53.178;6.376;2023-03-23T16:22:46;13.20;99.90
51793;DHT22;37850;53.178;6.376;2023-03-23T16:25:12;13.10;99.90
51793;DHT22;37850;53.178;6.376;2023-03-23T16:27:39;13.10;99.90
51793;DHT22;37850;53.178;6.376;2023-03-23T16:30:26;13.10;99.90
51793;DHT22;37850;53.178;6.376;2023-03-23T16:32:53;13.10;99.90
51793;DHT22;37850;53.178;6.376;2023-03-23T16:35:21;13.10;99.90
51793;DHT22;37850;53.178;6.376;2023-03-23T16:37:49;13.00;99.90
51793;DHT22;37850;53.178;6.376;2023-03-23T16:40:17;13.00;99.90
51793;DHT22;37850;53.178;6.376;2023-03-23T16:42:43;13.00;99.90
51793;DHT22;37850;53.178;6.376;2023-03-23T16:45:10;13.00;99.90
51793;DHT22;37850;53.178;6.376;2023-03-23T16:47:36;12.90;99.90
51793;DHT22;37850;53.178;6.376;2023-03-23T16:50:03;12.90;99.90
51793;DHT22;37850;53.178;6.376;2023-03-23T16:52:31;12.90;99.90
51793;DHT22;37850;53.178;6.376;2023-03-23T16:54:57;12.80;99.90
51793;DHT22;37850;53.178;6.376;2023-03-23T16:57:23;12.80;99.90
51793;DHT22;37850;53.178;6.376;2023-03-23T16:59:50;12.80;99.90
51793;DHT22;37850;53.178;6.376;2023-03-23T17:02:16;12.80;99.90
51793;DHT22;37850;53.178;6.376;2023-03-23T17:04:45;12.80;99.90
51793;DHT22;37850;53.178;6.376;2023-03-23T17:07:12;12.70;99.90
51793;DHT22;37850;53.178;6.376;2023-03-23T17:09:38;12.70;99.90
51793;DHT22;37850;53.178;6.376;2023-03-23T17:12:04;12.70;99.90
51793;DHT22;37850;53.178;6.376;2023-03-23T17:14:30;12.70;99.90
51793;DHT22;37850;53.178;6.376;2023-03-23T17:16:56;12.70;99.90
51793;DHT22;37850;53.178;6.376;2023-03-23T17:19:22;12.70;99.90
51793;DHT22;37850;53.178;6.376;2023-03-23T17:21:48;12.90;99.90
51793;DHT22;37850;53.178;6.376;2023-03-23T17:24:16;12.60;99.90
51793;DHT22;37850;53.178;6.376;2023-03-23T17:26:41;12.60;99.90
51793;DHT22;37850;53.178;6.376;2023-03-23T17:29:07;12.60;99.90
51793;DHT22;37850;53.178;6.376;2023-03-23T17:31:33;12.50;99.90
51793;DHT22;37850;53.178;6.376;2023-03-23T17:33:59;12.50;99.90
51793;DHT22;37850;53.178;6.376;2023-03-23T17:36:25;12.40;99.90
51793;DHT22;37850;53.178;6.376;2023-03-23T17:38:51;12.40;99.90
51793;DHT22;37850;53.178;6.376;2023-03-23T17:41:17;12.40;99.90
51793;DHT22;37850;53.178;6.376;2023-03-23T17:43:45;12.40;99.90
51793;DHT22;37850;53.178;6.376;2023-03-23T17:46:11;12.40;99.90
51793;DHT22;37850;53.178;6.376;2023-03-23T17:48:37;12.40;99.90